sensor_id;sensor_type;location;lat;lon;timestamp;P1;durP1;ratioP1;P2;durP2;ratioP2
19547;SDS011;9919;58.014;11.826;2023-05-10T00:00:19;0.98;;;0.98;;
19547;SDS011;9919;58.014;11.826;2023-05-10T00:02:22;0.90;;;0.90;;
19547;SDS011;9919;58.014;11.826;2023-05-10T00:04:24;0.80;;;0.80;;
19547;SDS011;9919;58.014;11.826;2023-05-10T00:06:27;0.88;;;0.88;;
19547;SDS011;9919;58.014;11.826;2023-05-10T00:08:28;0.80;;;0.80;;
19547;SDS011;9919;58.014;11.826;2023-05-10T00:10:30;0.80;;;0.80;;
19547;SDS011;9919;58.014;11.826;2023-05-10T00:12:31;0.70;;;0.70;;
19547;SDS011;9919;58.014;11.826;2023-05-10T00:14:32;0.80;;;0.80;;
19547;SDS011;9919;58.014;11.826;2023-05-10T00:16:34;1.10;;;0.98;;
19547;SDS011;9919;58.014;11.826;2023-05-10T00:18:35;1.00;;;1.00;;
19547;SDS011;9919;58.014;11.826;2023-05-10T00:20:36;1.15;;;0.90;;
19547;SDS011;9919;58.014;11.826;2023-05-10T00:22:38;0.80;;;0.80;;
19547;SDS011;9919;58.014;11.826;2023-05-10T00:24:39;1.23;;;1.17;;
19547;SDS011;9919;58.014;11.826;2023-05-10T00:26:40;1.00;;;1.00;;
19547;SDS011;9919;58.014;11.826;2023-05-10T00:28:43;1.20;;;1.10;;
19547;SDS011;9919;58.014;11.826;2023-05-10T00:30:44;1.02;;;1.02;;
19547;SDS011;9919;58.014;11.826;2023-05-10T00:32:45;0.85;;;0.85;;
19547;SDS011;9919;58.014;11.826;2023-05-10T00:34:49;0.70;;;0.70;;
19547;SDS011;9919;58.014;11.826;2023-05-10T00:36:50;1.17;;;0.90;;
19547;SDS011;9919;58.014;11.826;2023-05-10T00:38:52;1.20;;;1.15;;
19547;SDS011;9919;58.014;11.826;2023-05-10T00:40:53;0.95;;;0.95;;
19547;SDS011;9919;58.014;11.826;2023-05-10T00:42:54;1.00;;;0.90;;
19547;SDS011;9919;58.014;11.826;2023-05-10T00:44:56;1.05;;;1.00;;
19547;SDS011;9919;58.014;11.826;2023-05-10T00:46:58;0.80;;;0.80;;
19547;SDS011;9919;58.014;11.826;2023-05-10T00:49:01;0.80;;;0.80;;
19547;SDS011;9919;58.014;11.826;2023-05-10T00:51:03;1.83;;;1.30;;
19547;SDS011;9919;58.014;11.826;2023-05-10T00:53:04;0.95;;;0.95;;
19547;SDS011;9919;58.014;11.826;2023-05-10T00:55:06;0.73;;;0.73;;
19547;SDS011;9919;58.014;11.826;2023-05-10T00:57:08;0.95;;;0.90;;
19547;SDS011;9919;58.014;11.826;2023-05-10T00:59:09;1.20;;;1.10;;
19547;SDS011;9919;58.014;11.826;2023-05-10T01:01:11;0.95;;;0.95;;
19547;SDS011;9919;58.014;11.826;2023-05-10T01:03:12;0.95;;;0.95;;
19547;SDS011;9919;58.014;11.826;2023-05-10T01:05:14;0.88;;;0.88;;
19547;SDS011;9919;58.014;11.826;2023-05-10T01:07:15;0.80;;;0.80;;
19547;SDS011;9919;58.014;11.826;2023-05-10T01:09:17;0.95;;;0.95;;
19547;SDS011;9919;58.014;11.826;2023-05-10T01:11:19;0.90;;;0.90;;
19547;SDS011;9919;58.014;11.826;2023-05-10T01:15:33;0.90;;;0.90;;
19547;SDS011;9919;58.014;11.826;2023-05-10T01:17:35;0.70;;;0.70;;
19547;SDS011;9919;58.014;11.826;2023-05-10T01:19:37;1.00;;;1.00;;
19547;SDS011;9919;58.014;11.826;2023-05-10T01:22:02;0.70;;;0.70;;
19547;SDS011;9919;58.014;11.826;2023-05-10T01:26:15;1.17;;;1.15;;
19547;SDS011;9919;58.014;11.826;2023-05-10T01:34:34;1.02;;;0.93;;
19547;SDS011;9919;58.014;11.826;2023-05-10T01:37:15;1.30;;;1.20;;
19547;SDS011;9919;58.014;11.826;2023-05-10T01:39:25;1.02;;;1.02;;
19547;SDS011;9919;58.014;11.826;2023-05-10T01:43:44;1.20;;;1.10;;
19547;SDS011;9919;58.014;11.826;2023-05-10T01:45:59;0.98;;;0.98;;
19547;SDS011;9919;58.014;11.826;2023-05-10T01:48:12;1.00;;;1.00;;
19547;SDS011;9919;58.014;11.826;2023-05-10T01:50:17;1.30;;;1.20;;
19547;SDS011;9919;58.014;11.826;2023-05-10T01:52:25;1.95;;;0.88;;
19547;SDS011;9919;58.014;11.826;2023-05-10T01:54:31;1.13;;;1.13;;
19547;SDS011;9919;58.014;11.826;2023-05-10T01:56:34;1.15;;;1.10;;
19547;SDS011;9919;58.014;11.826;2023-05-10T01:58:36;0.90;;;0.90;;
19547;SDS011;9919;58.014;11.826;2023-05-10T02:00:42;1.00;;;1.00;;
19547;SDS011;9919;58.014;11.826;2023-05-10T02:02:46;1.10;;;1.10;;
19547;SDS011;9919;58.014;11.826;2023-05-10T02:04:49;1.10;;;1.08;;
19547;SDS011;9919;58.014;11.826;2023-05-10T02:06:52;1.02;;;1.02;;
19547;SDS011;9919;58.014;11.826;2023-05-10T02:08:55;1.05;;;0.90;;
19547;SDS011;9919;58.014;11.826;2023-05-10T02:10:57;1.00;;;1.00;;
19547;SDS011;9919;58.014;11.826;2023-05-10T02:12:59;0.80;;;0.80;;
19547;SDS011;9919;58.014;11.826;2023-05-10T02:15:03;2.15;;;0.80;;
19547;SDS011;9919;58.014;11.826;2023-05-10T02:17:05;1.08;;;1.00;;
19547;SDS011;9919;58.014;11.826;2023-05-10T02:19:09;0.90;;;0.90;;
19547;SDS011;9919;58.014;11.826;2023-05-10T02:21:11;0.80;;;0.80;;
19547;SDS011;9919;58.014;11.826;2023-05-10T02:23:13;1.00;;;1.00;;
19547;SDS011;9919;58.014;11.826;2023-05-10T02:25:16;1.00;;;0.98;;
19547;SDS011;9919;58.014;11.826;2023-05-10T02:27:20;2.78;;;0.90;;
19547;SDS011;9919;58.014;11.826;2023-05-10T02:29:22;0.93;;;0.82;;
19547;SDS011;9919;58.014;11.826;2023-05-10T02:31:25;0.90;;;0.90;;
19547;SDS011;9919;58.014;11.826;2023-05-10T02:33:27;1.30;;;0.85;;
19547;SDS011;9919;58.014;11.826;2023-05-10T02:35:29;0.85;;;0.85;;
19547;SDS011;9919;58.014;11.826;2023-05-10T02:37:33;1.08;;;1.08;;
19547;SDS011;9919;58.014;11.826;2023-05-10T02:39:36;1.00;;;1.00;;
19547;SDS011;9919;58.014;11.826;2023-05-10T02:41:38;1.05;;;1.05;;
19547;SDS011;9919;58.014;11.826;2023-05-10T02:43:41;0.93;;;0.93;;
19547;SDS011;9919;58.014;11.826;2023-05-10T02:45:43;1.40;;;1.00;;
19547;SDS011;9919;58.014;11.826;2023-05-10T02:47:47;1.00;;;1.00;;
19547;SDS011;9919;58.014;11.826;2023-05-10T02:49:48;1.60;;;1.50;;
19547;SDS011;9919;58.014;11.826;2023-05-10T02:51:54;1.20;;;1.10;;
19547;SDS011;9919;58.014;11.826;2023-05-10T02:53:58;1.13;;;1.05;;
19547;SDS011;9919;58.014;11.826;2023-05-10T02:56:05;0.90;;;0.90;;
19547;SDS011;9919;58.014;11.826;2023-05-10T02:58:20;1.38;;;1.27;;
19547;SDS011;9919;58.014;11.826;2023-05-10T03:00:22;0.80;;;0.80;;
19547;SDS011;9919;58.014;11.826;2023-05-10T03:02:25;1.42;;;1.05;;
19547;SDS011;9919;58.014;11.826;2023-05-10T03:04:27;0.93;;;0.93;;
19547;SDS011;9919;58.014;11.826;2023-05-10T03:06:28;1.10;;;1.00;;
19547;SDS011;9919;58.014;11.826;2023-05-10T03:08:30;1.00;;;1.00;;
19547;SDS011;9919;58.014;11.826;2023-05-10T03:10:32;1.10;;;1.08;;
19547;SDS011;9919;58.014;11.826;2023-05-10T03:15:42;1.10;;;1.10;;
19547;SDS011;9919;58.014;11.826;2023-05-10T03:17:57;1.02;;;1.02;;
19547;SDS011;9919;58.014;11.826;2023-05-10T03:20:11;1.00;;;1.00;;
19547;SDS011;9919;58.014;11.826;2023-05-10T03:22:19;1.02;;;0.90;;
19547;SDS011;9919;58.014;11.826;2023-05-10T03:24:28;1.08;;;1.08;;
19547;SDS011;9919;58.014;11.826;2023-05-10T03:26:30;1.27;;;1.10;;
19547;SDS011;9919;58.014;11.826;2023-05-10T03:28:33;1.15;;;1.10;;
19547;SDS011;9919;58.014;11.826;2023-05-10T03:30:35;1.13;;;1.10;;
19547;SDS011;9919;58.014;11.826;2023-05-10T03:32:36;0.95;;;0.95;;
19547;SDS011;9919;58.014;11.826;2023-05-10T03:34:41;0.77;;;0.77;;
19547;SDS011;9919;58.014;11.826;2023-05-10T03:36:43;1.15;;;1.15;;
19547;SDS011;9919;58.014;11.826;2023-05-10T03:38:44;1.20;;;1.10;;
19547;SDS011;9919;58.014;11.826;2023-05-10T03:40:47;0.80;;;0.80;;
19547;SDS011;9919;58.014;11.826;2023-05-10T03:42:48;0.80;;;0.80;;
19547;SDS011;9919;58.014;11.826;2023-05-10T03:44:50;1.13;;;1.13;;
19547;SDS011;9919;58.014;11.826;2023-05-10T03:46:51;1.23;;;1.08;;
19547;SDS011;9919;58.014;11.826;2023-05-10T03:48:53;1.25;;;1.15;;
19547;SDS011;9919;58.014;11.826;2023-05-10T03:50:54;0.80;;;0.80;;
19547;SDS011;9919;58.014;11.826;2023-05-10T03:52:56;0.98;;;0.98;;
19547;SDS011;9919;58.014;11.826;2023-05-10T03:54:58;1.27;;;1.15;;
19547;SDS011;9919;58.014;11.826;2023-05-10T03:56:59;1.85;;;0.98;;
19547;SDS011;9919;58.014;11.826;2023-05-10T03:59:00;1.20;;;1.20;;
19547;SDS011;9919;58.014;11.826;2023-05-10T04:01:07;1.15;;;1.05;;
19547;SDS011;9919;58.014;11.826;2023-05-10T04:03:09;0.98;;;0.98;;
19547;SDS011;9919;58.014;11.826;2023-05-10T04:05:10;0.90;;;0.90;;
19547;SDS011;9919;58.014;11.826;2023-05-10T04:07:13;0.85;;;0.85;;
19547;SDS011;9919;58.014;11.826;2023-05-10T04:09:15;1.17;;;1.00;;
19547;SDS011;9919;58.014;11.826;2023-05-10T04:11:17;1.55;;;1.27;;
19547;SDS011;9919;58.014;11.826;2023-05-10T04:13:18;1.02;;;1.02;;
19547;SDS011;9919;58.014;11.826;2023-05-10T04:15:21;0.82;;;0.82;;
19547;SDS011;9919;58.014;11.826;2023-05-10T04:17:23;1.60;;;1.10;;
19547;SDS011;9919;58.014;11.826;2023-05-10T04:19:28;0.90;;;0.90;;
19547;SDS011;9919;58.014;11.826;2023-05-10T04:21:30;1.67;;;1.30;;
19547;SDS011;9919;58.014;11.826;2023-05-10T04:23:32;1.20;;;1.10;;
19547;SDS011;9919;58.014;11.826;2023-05-10T04:25:33;1.20;;;1.20;;
19547;SDS011;9919;58.014;11.826;2023-05-10T04:27:35;1.20;;;1.20;;
19547;SDS011;9919;58.014;11.826;2023-05-10T04:29:37;1.65;;;1.30;;
19547;SDS011;9919;58.014;11.826;2023-05-10T04:31:38;0.90;;;0.90;;
19547;SDS011;9919;58.014;11.826;2023-05-10T04:33:39;0.85;;;0.85;;
19547;SDS011;9919;58.014;11.826;2023-05-10T04:35:41;1.23;;;0.93;;
19547;SDS011;9919;58.014;11.826;2023-05-10T04:37:42;1.45;;;1.25;;
19547;SDS011;9919;58.014;11.826;2023-05-10T04:39:43;0.98;;;0.98;;
19547;SDS011;9919;58.014;11.826;2023-05-10T04:41:45;1.15;;;1.05;;
19547;SDS011;9919;58.014;11.826;2023-05-10T04:43:47;1.08;;;0.98;;
19547;SDS011;9919;58.014;11.826;2023-05-10T04:45:49;1.02;;;1.02;;
19547;SDS011;9919;58.014;11.826;2023-05-10T04:47:50;1.20;;;1.20;;
19547;SDS011;9919;58.014;11.826;2023-05-10T04:49:52;1.13;;;1.13;;
19547;SDS011;9919;58.014;11.826;2023-05-10T04:51:54;1.00;;;1.00;;
19547;SDS011;9919;58.014;11.826;2023-05-10T04:53:55;1.10;;;1.10;;
19547;SDS011;9919;58.014;11.826;2023-05-10T04:55:57;1.10;;;1.00;;
19547;SDS011;9919;58.014;11.826;2023-05-10T04:57:58;1.27;;;1.17;;
19547;SDS011;9919;58.014;11.826;2023-05-10T05:00:00;0.80;;;0.80;;
19547;SDS011;9919;58.014;11.826;2023-05-10T05:02:03;1.20;;;1.20;;
19547;SDS011;9919;58.014;11.826;2023-05-10T05:04:04;1.00;;;1.00;;
19547;SDS011;9919;58.014;11.826;2023-05-10T05:06:06;0.85;;;0.85;;
19547;SDS011;9919;58.014;11.826;2023-05-10T05:08:08;1.15;;;1.10;;
19547;SDS011;9919;58.014;11.826;2023-05-10T05:10:09;1.42;;;1.33;;
19547;SDS011;9919;58.014;11.826;2023-05-10T05:12:11;1.25;;;1.15;;
19547;SDS011;9919;58.014;11.826;2023-05-10T05:14:14;1.27;;;1.17;;
19547;SDS011;9919;58.014;11.826;2023-05-10T05:16:20;1.55;;;1.13;;
19547;SDS011;9919;58.014;11.826;2023-05-10T05:18:22;2.00;;;1.10;;
19547;SDS011;9919;58.014;11.826;2023-05-10T05:20:23;1.25;;;1.20;;
19547;SDS011;9919;58.014;11.826;2023-05-10T05:22:24;5.22;;;1.55;;
19547;SDS011;9919;58.014;11.826;2023-05-10T05:24:28;1.00;;;1.00;;
19547;SDS011;9919;58.014;11.826;2023-05-10T05:26:29;1.13;;;1.13;;
19547;SDS011;9919;58.014;11.826;2023-05-10T05:28:30;1.05;;;1.05;;
19547;SDS011;9919;58.014;11.826;2023-05-10T05:30:34;1.95;;;1.20;;
19547;SDS011;9919;58.014;11.826;2023-05-10T05:32:37;1.23;;;1.23;;
19547;SDS011;9919;58.014;11.826;2023-05-10T05:34:39;1.42;;;1.33;;
19547;SDS011;9919;58.014;11.826;2023-05-10T05:36:40;1.20;;;1.10;;
19547;SDS011;9919;58.014;11.826;2023-05-10T05:38:41;1.10;;;1.10;;
19547;SDS011;9919;58.014;11.826;2023-05-10T05:40:43;1.10;;;1.10;;
19547;SDS011;9919;58.014;11.826;2023-05-10T05:42:45;3.53;;;1.30;;
19547;SDS011;9919;58.014;11.826;2023-05-10T05:44:47;0.70;;;0.70;;
19547;SDS011;9919;58.014;11.826;2023-05-10T05:46:49;1.55;;;1.20;;
19547;SDS011;9919;58.014;11.826;2023-05-10T05:48:50;1.20;;;1.20;;
19547;SDS011;9919;58.014;11.826;2023-05-10T05:50:55;2.03;;;1.35;;
19547;SDS011;9919;58.014;11.826;2023-05-10T05:52:57;1.05;;;1.05;;
19547;SDS011;9919;58.014;11.826;2023-05-10T05:54:58;2.22;;;1.42;;
19547;SDS011;9919;58.014;11.826;2023-05-10T05:57:00;0.90;;;0.90;;
19547;SDS011;9919;58.014;11.826;2023-05-10T05:59:01;2.05;;;1.20;;
19547;SDS011;9919;58.014;11.826;2023-05-10T06:01:03;1.17;;;1.13;;
19547;SDS011;9919;58.014;11.826;2023-05-10T06:03:05;1.35;;;1.25;;
19547;SDS011;9919;58.014;11.826;2023-05-10T06:05:07;1.73;;;1.30;;
19547;SDS011;9919;58.014;11.826;2023-05-10T06:07:08;1.15;;;1.08;;
19547;SDS011;9919;58.014;11.826;2023-05-10T06:09:10;1.00;;;1.00;;
19547;SDS011;9919;58.014;11.826;2023-05-10T06:11:12;1.10;;;0.93;;
19547;SDS011;9919;58.014;11.826;2023-05-10T06:13:13;1.20;;;1.20;;
19547;SDS011;9919;58.014;11.826;2023-05-10T06:15:15;1.27;;;1.17;;
19547;SDS011;9919;58.014;11.826;2023-05-10T06:17:17;1.17;;;1.17;;
19547;SDS011;9919;58.014;11.826;2023-05-10T06:19:18;1.33;;;1.25;;
19547;SDS011;9919;58.014;11.826;2023-05-10T06:21:21;1.05;;;1.05;;
19547;SDS011;9919;58.014;11.826;2023-05-10T06:23:23;1.42;;;1.33;;
19547;SDS011;9919;58.014;11.826;2023-05-10T06:25:25;1.20;;;1.10;;
19547;SDS011;9919;58.014;11.826;2023-05-10T06:27:26;1.00;;;1.00;;
19547;SDS011;9919;58.014;11.826;2023-05-10T06:29:28;2.92;;;1.35;;
19547;SDS011;9919;58.014;11.826;2023-05-10T06:31:29;1.38;;;1.27;;
19547;SDS011;9919;58.014;11.826;2023-05-10T06:33:30;1.05;;;1.05;;
19547;SDS011;9919;58.014;11.826;2023-05-10T06:35:32;1.02;;;1.00;;
19547;SDS011;9919;58.014;11.826;2023-05-10T06:37:34;1.63;;;1.52;;
19547;SDS011;9919;58.014;11.826;2023-05-10T06:39:38;1.40;;;1.30;;
19547;SDS011;9919;58.014;11.826;2023-05-10T06:41:39;1.30;;;1.20;;
19547;SDS011;9919;58.014;11.826;2023-05-10T06:43:41;1.48;;;1.40;;
19547;SDS011;9919;58.014;11.826;2023-05-10T06:45:44;2.35;;;1.30;;
19547;SDS011;9919;58.014;11.826;2023-05-10T06:47:46;3.75;;;1.27;;
19547;SDS011;9919;58.014;11.826;2023-05-10T06:49:47;1.02;;;1.02;;
19547;SDS011;9919;58.014;11.826;2023-05-10T06:51:49;1.30;;;1.30;;
19547;SDS011;9919;58.014;11.826;2023-05-10T06:53:50;1.80;;;1.30;;
19547;SDS011;9919;58.014;11.826;2023-05-10T06:55:52;0.90;;;0.90;;
19547;SDS011;9919;58.014;11.826;2023-05-10T06:57:54;1.33;;;1.30;;
19547;SDS011;9919;58.014;11.826;2023-05-10T06:59:55;1.17;;;1.17;;
19547;SDS011;9919;58.014;11.826;2023-05-10T07:01:57;2.75;;;1.50;;
19547;SDS011;9919;58.014;11.826;2023-05-10T07:03:59;0.85;;;0.85;;
19547;SDS011;9919;58.014;11.826;2023-05-10T07:06:01;1.40;;;1.40;;
19547;SDS011;9919;58.014;11.826;2023-05-10T07:08:07;2.25;;;1.40;;
19547;SDS011;9919;58.014;11.826;2023-05-10T07:10:08;2.38;;;1.00;;
19547;SDS011;9919;58.014;11.826;2023-05-10T07:12:10;1.42;;;1.33;;
19547;SDS011;9919;58.014;11.826;2023-05-10T07:14:11;3.25;;;1.30;;
19547;SDS011;9919;58.014;11.826;2023-05-10T07:16:13;2.33;;;1.45;;
19547;SDS011;9919;58.014;11.826;2023-05-10T07:18:14;1.83;;;1.30;;
19547;SDS011;9919;58.014;11.826;2023-05-10T07:20:16;1.92;;;1.10;;
19547;SDS011;9919;58.014;11.826;2023-05-10T07:22:18;3.30;;;1.30;;
19547;SDS011;9919;58.014;11.826;2023-05-10T07:24:19;4.53;;;1.42;;
19547;SDS011;9919;58.014;11.826;2023-05-10T07:26:20;1.30;;;1.20;;
19547;SDS011;9919;58.014;11.826;2023-05-10T07:28:22;1.73;;;1.23;;
19547;SDS011;9919;58.014;11.826;2023-05-10T07:30:24;1.40;;;1.27;;
19547;SDS011;9919;58.014;11.826;2023-05-10T07:32:25;1.23;;;1.23;;
19547;SDS011;9919;58.014;11.826;2023-05-10T07:34:27;2.58;;;1.40;;
19547;SDS011;9919;58.014;11.826;2023-05-10T07:36:30;1.58;;;1.30;;
19547;SDS011;9919;58.014;11.826;2023-05-10T07:38:31;1.67;;;1.45;;
19547;SDS011;9919;58.014;11.826;2023-05-10T07:40:32;0.98;;;0.98;;
19547;SDS011;9919;58.014;11.826;2023-05-10T07:42:35;1.40;;;1.30;;
19547;SDS011;9919;58.014;11.826;2023-05-10T07:44:38;1.23;;;1.13;;
19547;SDS011;9919;58.014;11.826;2023-05-10T07:46:39;1.27;;;1.17;;
19547;SDS011;9919;58.014;11.826;2023-05-10T07:48:40;1.35;;;1.23;;
19547;SDS011;9919;58.014;11.826;2023-05-10T07:50:43;1.40;;;1.30;;
19547;SDS011;9919;58.014;11.826;2023-05-10T07:52:44;1.10;;;1.00;;
19547;SDS011;9919;58.014;11.826;2023-05-10T07:54:46;1.50;;;1.40;;
19547;SDS011;9919;58.014;11.826;2023-05-10T07:56:48;1.45;;;1.35;;
19547;SDS011;9919;58.014;11.826;2023-05-10T07:58:49;2.05;;;1.23;;
19547;SDS011;9919;58.014;11.826;2023-05-10T08:00:51;1.27;;;1.17;;
19547;SDS011;9919;58.014;11.826;2023-05-10T08:02:52;3.13;;;1.15;;
19547;SDS011;9919;58.014;11.826;2023-05-10T08:04:55;1.40;;;1.02;;
19547;SDS011;9919;58.014;11.826;2023-05-10T08:06:57;1.35;;;1.25;;
19547;SDS011;9919;58.014;11.826;2023-05-10T08:08:58;1.60;;;1.15;;
19547;SDS011;9919;58.014;11.826;2023-05-10T08:10:59;1.40;;;1.30;;
19547;SDS011;9919;58.014;11.826;2023-05-10T08:13:01;1.40;;;1.33;;
19547;SDS011;9919;58.014;11.826;2023-05-10T08:15:02;1.40;;;1.30;;
19547;SDS011;9919;58.014;11.826;2023-05-10T08:17:07;2.47;;;1.33;;
19547;SDS011;9919;58.014;11.826;2023-05-10T08:19:09;1.35;;;1.25;;
19547;SDS011;9919;58.014;11.826;2023-05-10T08:21:10;1.27;;;1.20;;
19547;SDS011;9919;58.014;11.826;2023-05-10T08:23:12;2.22;;;1.52;;
19547;SDS011;9919;58.014;11.826;2023-05-10T08:25:13;1.50;;;1.40;;
19547;SDS011;9919;58.014;11.826;2023-05-10T08:27:15;1.38;;;1.35;;
19547;SDS011;9919;58.014;11.826;2023-05-10T08:29:16;2.50;;;1.73;;
19547;SDS011;9919;58.014;11.826;2023-05-10T08:31:19;2.05;;;1.45;;
19547;SDS011;9919;58.014;11.826;2023-05-10T08:33:21;2.50;;;1.30;;
19547;SDS011;9919;58.014;11.826;2023-05-10T08:35:23;5.43;;;1.60;;
19547;SDS011;9919;58.014;11.826;2023-05-10T08:37:24;1.40;;;1.30;;
19547;SDS011;9919;58.014;11.826;2023-05-10T08:39:26;1.92;;;1.65;;
19547;SDS011;9919;58.014;11.826;2023-05-10T08:41:27;1.25;;;1.20;;
19547;SDS011;9919;58.014;11.826;2023-05-10T08:43:29;1.67;;;1.27;;
19547;SDS011;9919;58.014;11.826;2023-05-10T08:45:32;1.73;;;1.05;;
19547;SDS011;9919;58.014;11.826;2023-05-10T08:47:36;3.72;;;1.45;;
19547;SDS011;9919;58.014;11.826;2023-05-10T08:49:38;1.60;;;1.50;;
19547;SDS011;9919;58.014;11.826;2023-05-10T08:51:40;1.60;;;1.50;;
19547;SDS011;9919;58.014;11.826;2023-05-10T08:53:47;4.05;;;1.42;;
19547;SDS011;9919;58.014;11.826;2023-05-10T08:55:49;1.50;;;1.40;;
19547;SDS011;9919;58.014;11.826;2023-05-10T08:57:50;1.35;;;1.20;;
19547;SDS011;9919;58.014;11.826;2023-05-10T08:59:52;1.88;;;1.48;;
19547;SDS011;9919;58.014;11.826;2023-05-10T09:01:55;1.65;;;1.40;;
19547;SDS011;9919;58.014;11.826;2023-05-10T09:03:58;1.50;;;1.40;;
19547;SDS011;9919;58.014;11.826;2023-05-10T09:06:00;1.30;;;1.30;;
19547;SDS011;9919;58.014;11.826;2023-05-10T09:08:01;1.40;;;1.30;;
19547;SDS011;9919;58.014;11.826;2023-05-10T09:10:04;1.48;;;1.38;;
19547;SDS011;9919;58.014;11.826;2023-05-10T09:12:05;1.40;;;1.30;;
19547;SDS011;9919;58.014;11.826;2023-05-10T09:14:11;1.73;;;1.58;;
19547;SDS011;9919;58.014;11.826;2023-05-10T09:16:13;1.20;;;1.20;;
19547;SDS011;9919;58.014;11.826;2023-05-10T09:18:15;1.40;;;1.30;;
19547;SDS011;9919;58.014;11.826;2023-05-10T09:20:17;1.63;;;1.20;;
19547;SDS011;9919;58.014;11.826;2023-05-10T09:22:18;1.73;;;1.45;;
19547;SDS011;9919;58.014;11.826;2023-05-10T09:24:20;1.48;;;1.30;;
19547;SDS011;9919;58.014;11.826;2023-05-10T09:26:27;1.90;;;1.45;;
19547;SDS011;9919;58.014;11.826;2023-05-10T09:28:31;1.80;;;1.55;;
19547;SDS011;9919;58.014;11.826;2023-05-10T09:30:52;1.48;;;1.20;;
19547;SDS011;9919;58.014;11.826;2023-05-10T09:32:56;2.45;;;1.75;;
19547;SDS011;9919;58.014;11.826;2023-05-10T09:34:58;1.92;;;1.30;;
19547;SDS011;9919;58.014;11.826;2023-05-10T09:37:10;4.20;;;1.25;;
19547;SDS011;9919;58.014;11.826;2023-05-10T09:39:12;2.58;;;1.67;;
19547;SDS011;9919;58.014;11.826;2023-05-10T09:41:17;1.30;;;1.20;;
19547;SDS011;9919;58.014;11.826;2023-05-10T09:43:19;1.42;;;1.30;;
19547;SDS011;9919;58.014;11.826;2023-05-10T09:45:23;11.07;;;1.80;;
19547;SDS011;9919;58.014;11.826;2023-05-10T09:47:26;2.03;;;1.60;;
19547;SDS011;9919;58.014;11.826;2023-05-10T09:49:27;1.92;;;1.60;;
19547;SDS011;9919;58.014;11.826;2023-05-10T09:51:29;1.92;;;1.70;;
19547;SDS011;9919;58.014;11.826;2023-05-10T09:53:30;1.55;;;1.45;;
19547;SDS011;9919;58.014;11.826;2023-05-10T09:55:38;4.43;;;1.58;;
19547;SDS011;9919;58.014;11.826;2023-05-10T09:57:41;1.63;;;1.50;;
19547;SDS011;9919;58.014;11.826;2023-05-10T09:59:42;5.32;;;2.05;;
19547;SDS011;9919;58.014;11.826;2023-05-10T10:01:49;1.63;;;1.52;;
19547;SDS011;9919;58.014;11.826;2023-05-10T10:03:51;1.73;;;1.48;;
19547;SDS011;9919;58.014;11.826;2023-05-10T10:05:53;4.10;;;1.67;;
19547;SDS011;9919;58.014;11.826;2023-05-10T10:07:59;1.88;;;1.50;;
19547;SDS011;9919;58.014;11.826;2023-05-10T10:10:02;3.17;;;1.65;;
19547;SDS011;9919;58.014;11.826;2023-05-10T10:12:04;1.50;;;1.40;;
19547;SDS011;9919;58.014;11.826;2023-05-10T10:14:06;1.80;;;1.30;;
19547;SDS011;9919;58.014;11.826;2023-05-10T10:16:08;2.35;;;1.60;;
19547;SDS011;9919;58.014;11.826;2023-05-10T10:18:12;1.98;;;1.70;;
19547;SDS011;9919;58.014;11.826;2023-05-10T10:20:15;2.83;;;1.70;;
19547;SDS011;9919;58.014;11.826;2023-05-10T10:22:17;1.58;;;1.40;;
19547;SDS011;9919;58.014;11.826;2023-05-10T10:24:18;2.83;;;1.30;;
19547;SDS011;9919;58.014;11.826;2023-05-10T10:26:19;2.03;;;1.70;;
19547;SDS011;9919;58.014;11.826;2023-05-10T10:28:26;1.63;;;1.52;;
19547;SDS011;9919;58.014;11.826;2023-05-10T10:30:42;2.58;;;1.92;;
19547;SDS011;9919;58.014;11.826;2023-05-10T10:34:51;1.80;;;1.58;;
19547;SDS011;9919;58.014;11.826;2023-05-10T10:36:53;1.70;;;1.60;;
19547;SDS011;9919;58.014;11.826;2023-05-10T10:38:59;2.78;;;1.60;;
19547;SDS011;9919;58.014;11.826;2023-05-10T10:41:02;2.70;;;1.52;;
19547;SDS011;9919;58.014;11.826;2023-05-10T10:43:23;5.63;;;1.33;;
19547;SDS011;9919;58.014;11.826;2023-05-10T10:45:25;4.05;;;1.60;;
19547;SDS011;9919;58.014;11.826;2023-05-10T10:47:28;2.10;;;1.70;;
19547;SDS011;9919;58.014;11.826;2023-05-10T10:49:33;1.33;;;1.23;;
19547;SDS011;9919;58.014;11.826;2023-05-10T10:51:37;1.50;;;1.40;;
19547;SDS011;9919;58.014;11.826;2023-05-10T10:53:39;1.30;;;1.25;;
19547;SDS011;9919;58.014;11.826;2023-05-10T10:55:45;1.90;;;1.50;;
19547;SDS011;9919;58.014;11.826;2023-05-10T10:57:52;2.30;;;1.60;;
19547;SDS011;9919;58.014;11.826;2023-05-10T11:04:46;2.47;;;1.63;;
19547;SDS011;9919;58.014;11.826;2023-05-10T11:06:48;1.98;;;1.33;;
19547;SDS011;9919;58.014;11.826;2023-05-10T11:08:49;1.27;;;1.27;;
19547;SDS011;9919;58.014;11.826;2023-05-10T11:13:05;2.20;;;1.38;;
19547;SDS011;9919;58.014;11.826;2023-05-10T11:15:10;2.20;;;1.40;;
19547;SDS011;9919;58.014;11.826;2023-05-10T11:17:24;2.08;;;1.50;;
19547;SDS011;9919;58.014;11.826;2023-05-10T11:19:29;1.50;;;1.42;;
19547;SDS011;9919;58.014;11.826;2023-05-10T11:21:31;1.52;;;1.42;;
19547;SDS011;9919;58.014;11.826;2023-05-10T11:23:47;4.68;;;1.35;;
19547;SDS011;9919;58.014;11.826;2023-05-10T11:25:57;1.58;;;1.48;;
19547;SDS011;9919;58.014;11.826;2023-05-10T11:28:01;5.18;;;1.58;;
19547;SDS011;9919;58.014;11.826;2023-05-10T11:30:05;2.10;;;1.33;;
19547;SDS011;9919;58.014;11.826;2023-05-10T11:32:06;1.40;;;1.30;;
19547;SDS011;9919;58.014;11.826;2023-05-10T11:34:08;1.45;;;1.35;;
19547;SDS011;9919;58.014;11.826;2023-05-10T11:36:14;1.75;;;1.52;;
19547;SDS011;9919;58.014;11.826;2023-05-10T11:38:17;1.80;;;1.70;;
19547;SDS011;9919;58.014;11.826;2023-05-10T11:40:18;1.23;;;1.15;;
19547;SDS011;9919;58.014;11.826;2023-05-10T11:42:21;1.60;;;1.50;;
19547;SDS011;9919;58.014;11.826;2023-05-10T11:44:24;2.17;;;1.48;;
19547;SDS011;9919;58.014;11.826;2023-05-10T11:46:30;2.05;;;1.75;;
19547;SDS011;9919;58.014;11.826;2023-05-10T11:48:32;1.88;;;1.77;;
19547;SDS011;9919;58.014;11.826;2023-05-10T11:50:34;1.55;;;1.42;;
19547;SDS011;9919;58.014;11.826;2023-05-10T11:52:35;2.35;;;1.35;;
19547;SDS011;9919;58.014;11.826;2023-05-10T11:54:37;2.50;;;1.67;;
19547;SDS011;9919;58.014;11.826;2023-05-10T11:56:51;1.58;;;1.48;;
19547;SDS011;9919;58.014;11.826;2023-05-10T11:58:54;1.80;;;1.70;;
19547;SDS011;9919;58.014;11.826;2023-05-10T12:00:56;1.80;;;1.70;;
19547;SDS011;9919;58.014;11.826;2023-05-10T12:03:01;2.15;;;1.95;;
19547;SDS011;9919;58.014;11.826;2023-05-10T12:05:04;2.28;;;1.60;;
19547;SDS011;9919;58.014;11.826;2023-05-10T12:07:06;1.75;;;1.65;;
19547;SDS011;9919;58.014;11.826;2023-05-10T12:09:08;1.95;;;1.83;;
19547;SDS011;9919;58.014;11.826;2023-05-10T12:11:10;3.42;;;1.42;;
19547;SDS011;9919;58.014;11.826;2023-05-10T12:13:12;3.03;;;1.50;;
19547;SDS011;9919;58.014;11.826;2023-05-10T12:15:18;1.67;;;1.58;;
19547;SDS011;9919;58.014;11.826;2023-05-10T12:17:27;2.70;;;1.75;;
19547;SDS011;9919;58.014;11.826;2023-05-10T12:19:36;1.75;;;1.58;;
19547;SDS011;9919;58.014;11.826;2023-05-10T12:21:38;2.63;;;1.48;;
19547;SDS011;9919;58.014;11.826;2023-05-10T12:23:41;1.58;;;1.48;;
19547;SDS011;9919;58.014;11.826;2023-05-10T12:25:43;2.22;;;1.50;;
19547;SDS011;9919;58.014;11.826;2023-05-10T12:27:52;1.55;;;1.45;;
19547;SDS011;9919;58.014;11.826;2023-05-10T12:29:55;1.85;;;1.52;;
19547;SDS011;9919;58.014;11.826;2023-05-10T12:32:00;1.27;;;1.27;;
19547;SDS011;9919;58.014;11.826;2023-05-10T12:34:02;1.70;;;1.60;;
19547;SDS011;9919;58.014;11.826;2023-05-10T12:36:03;1.52;;;1.42;;
19547;SDS011;9919;58.014;11.826;2023-05-10T12:38:22;3.20;;;1.70;;
19547;SDS011;9919;58.014;11.826;2023-05-10T12:40:31;1.55;;;1.48;;
19547;SDS011;9919;58.014;11.826;2023-05-10T12:42:33;1.30;;;1.30;;
19547;SDS011;9919;58.014;11.826;2023-05-10T12:44:35;1.90;;;1.50;;
19547;SDS011;9919;58.014;11.826;2023-05-10T12:46:37;1.67;;;1.58;;